Time;durP1;ratioP1;P1;durP2;ratioP2;P2;SDS_P1;SDS_P2;PMS_P1;PMS_P2;Temp;Humidity;BMP_temperature;BMP_pressure;BME280_temperature;BME280_humidity;BME280_pressure;Samples;Min_cycle;Max_cycle;Signal;HPM_P1;HPM_P2
2021/09/15 00:01:54;;;;;;;;;5.25;5.00;;;;;22.19;81.29;100786.13;4984039;28;45402;-67
2021/09/15 00:04:20;;;;;;;;;1.75;1.25;;;;;22.18;81.05;100795.13;4983248;28;52005;-67
2021/09/15 00:06:45;;;;;;;;;6.00;4.00;;;;;22.16;81.55;100786.41;4993510;28;47337;-67
2021/09/15 00:09:11;;;;;;;;;7.75;6.00;;;;;22.13;81.29;100777.69;4982498;28;45344;-68
2021/09/15 00:11:36;;;;;;;;;5.25;5.00;;;;;22.16;80.90;100783.72;4982579;28;45466;-67
2021/09/15 00:14:03;;;;;;;;;4.50;4.50;;;;;22.16;80.87;100783.72;4985148;28;45562;-67
2021/09/15 00:16:28;;;;;;;;;5.00;4.25;;;;;22.14;81.20;100783.88;4983482;28;45450;-68
2021/09/15 00:18:54;;;;;;;;;9.75;7.75;;;;;22.09;81.72;100778.91;4991865;28;45357;-68
2021/09/15 00:21:19;;;;;;;;;5.00;5.00;;;;;22.11;81.38;100782.31;4998780;28;45746;-68
2021/09/15 00:23:44;;;;;;;;;8.00;6.75;;;;;22.09;81.49;100786.94;4992700;28;45345;-67
2021/09/15 00:26:10;;;;;;;;;6.00;5.00;;;;;22.08;81.21;100795.94;4992050;28;46174;-68
2021/09/15 00:28:35;;;;;;;;;8.75;5.00;;;;;22.03;81.57;100784.81;4990192;28;45815;-68
2021/09/15 00:31:00;;;;;;;;;6.25;5.00;;;;;22.04;80.75;100788.34;4982375;28;45348;-68
2021/09/15 00:33:25;;;;;;;;;6.75;5.75;;;;;21.99;81.01;100785.22;4994054;28;46839;-67
2021/09/15 00:35:51;;;;;;;;;8.00;5.00;;;;;21.99;81.67;100778.03;4992380;28;56007;-68
2021/09/15 00:38:16;;;;;;;;;6.00;6.00;;;;;21.94;81.33;100766.91;4985785;28;45360;-68
2021/09/15 00:40:41;;;;;;;;;6.00;6.00;;;;;21.97;81.85;100769.28;4985043;28;45450;-67
2021/09/15 00:43:07;;;;;;;;;5.25;5.25;;;;;21.97;81.50;100766.59;4986098;28;45509;-67
2021/09/15 00:45:32;;;;;;;;;6.00;5.50;;;;;21.97;81.73;100761.25;4990656;28;45440;-68
2021/09/15 00:47:57;;;;;;;;;6.50;5.75;;;;;21.95;81.43;100757.88;4986964;28;45559;-68
2021/09/15 00:50:23;;;;;;;;;8.50;4.50;;;;;21.94;81.77;100753.53;4993715;28;45744;-67
2021/09/15 00:52:48;;;;;;;;;8.75;6.50;;;;;21.92;81.53;100754.63;4990148;28;45470;-68
2021/09/15 00:55:14;;;;;;;;;6.00;5.00;;;;;21.89;81.61;100753.09;4990844;28;46533;-68
2021/09/15 00:57:39;;;;;;;;;6.25;6.00;;;;;21.86;81.75;100754.19;4989679;28;45395;-68
2021/09/15 01:00:07;;;;;;;;;6.00;6.00;;;;;21.86;81.82;100750.69;4991971;28;45532;-67
2021/09/15 01:02:33;;;;;;;;;4.75;4.75;;;;;21.81;81.61;100750.25;4990730;28;45384;-68
2021/09/15 01:04:58;;;;;;;;;6.25;6.00;;;;;21.81;81.56;100753.75;4986550;28;45526;-67
2021/09/15 01:07:24;;;;;;;;;5.00;5.00;;;;;21.67;82.20;100737.28;4990388;28;45285;-68
2021/09/15 01:09:49;;;;;;;;;5.75;5.50;;;;;21.79;81.70;100757.56;4984305;28;45486;-68
2021/09/15 01:12:14;;;;;;;;;4.00;4.00;;;;;21.76;82.40;100752.50;4980312;28;45360;-68
2021/09/15 01:14:41;;;;;;;;;4.25;4.25;;;;;21.78;82.54;100759.41;4992549;28;45475;-68
2021/09/15 01:17:07;;;;;;;;;5.00;4.50;;;;;21.77;82.43;100757.72;4990464;28;45507;-68
2021/09/15 01:19:32;;;;;;;;;5.00;5.00;;;;;21.78;82.39;100748.72;4988793;28;45475;-68
2021/09/15 01:21:58;;;;;;;;;5.25;4.00;;;;;21.78;82.07;100742.50;4980095;28;45467;-67
2021/09/15 01:24:25;;;;;;;;;5.00;5.00;;;;;21.79;82.23;100741.53;4994912;28;45647;-68
2021/09/15 01:26:52;;;;;;;;;7.25;5.75;;;;;21.79;82.44;100742.38;4991565;28;45665;-67
2021/09/15 01:29:20;;;;;;;;;7.75;6.75;;;;;21.77;82.17;100733.66;4985045;28;45483;-68
2021/09/15 01:31:59;;;;;;;;;7.25;5.00;;;;;21.82;82.31;100746.59;4985663;28;47738;-68
2021/09/15 01:34:25;;;;;;;;;5.25;4.00;;;;;21.82;83.72;100735.88;4989923;28;46600;-68
2021/09/15 01:36:51;;;;;;;;;5.50;5.00;;;;;21.77;84.03;100735.44;4991461;28;45754;-68
2021/09/15 01:39:16;;;;;;;;;6.75;6.00;;;;;21.76;83.47;100741.78;4981926;28;45435;-68
2021/09/15 01:41:42;;;;;;;;;9.25;6.00;;;;;21.75;84.11;100745.47;4991501;28;45520;-68
2021/09/15 01:44:07;;;;;;;;;7.75;6.50;;;;;21.75;83.82;100745.47;4990463;28;48828;-68
2021/09/15 01:46:32;;;;;;;;;6.25;4.50;;;;;21.73;83.52;100742.09;4987586;28;46088;-68
2021/09/15 01:48:58;;;;;;;;;5.50;5.50;;;;;21.73;83.57;100742.94;4993026;28;46680;-68
2021/09/15 01:51:23;;;;;;;;;7.75;5.00;;;;;21.71;83.68;100744.88;4983154;28;45423;-68
2021/09/15 01:53:48;;;;;;;;;6.00;5.00;;;;;21.67;83.19;100743.47;4989435;28;46384;-68
2021/09/15 01:56:15;;;;;;;;;9.50;5.75;;;;;21.66;83.40;100744.44;4990546;28;55537;-68
2021/09/15 01:58:40;;;;;;;;;4.25;4.25;;;;;21.62;84.01;100735.88;4992672;28;45560;-68
2021/09/15 02:01:05;;;;;;;;;5.50;4.25;;;;;21.62;83.85;100729.69;4980525;28;48195;-69
2021/09/15 02:03:30;;;;;;;;;4.50;4.25;;;;;21.62;84.15;100735.03;4985183;28;45407;-68
2021/09/15 02:05:56;;;;;;;;;6.00;5.25;;;;;21.55;83.42;100724.00;4979146;28;51042;-68
2021/09/15 02:08:21;;;;;;;;;7.25;5.25;;;;;21.63;83.47;100745.56;4980601;28;45553;-68
2021/09/15 02:10:46;;;;;;;;;7.25;5.00;;;;;21.63;83.93;100750.91;4987249;28;45540;-68
2021/09/15 02:13:12;;;;;;;;;4.50;4.50;;;;;21.63;84.12;100748.25;5000007;28;53284;-68
2021/09/15 02:15:37;;;;;;;;;7.50;5.50;;;;;21.60;83.44;100748.50;4983096;28;45557;-68
2021/09/15 02:18:02;;;;;;;;;8.75;6.25;;;;;21.60;84.09;100753.00;4990115;28;45490;-68
2021/09/15 02:20:28;;;;;;;;;10.00;6.00;;;;;21.61;84.25;100755.56;4981188;28;45639;-68
2021/09/15 02:22:53;;;;;;;;;6.75;4.50;;;;;21.63;84.13;100755.44;4985498;28;45475;-68
2021/09/15 02:25:18;;;;;;;;;5.00;5.00;;;;;21.62;83.83;100754.59;4990270;28;51043;-68
2021/09/15 02:27:44;;;;;;;;;6.25;5.00;;;;;21.62;84.13;100751.91;4989006;28;45736;-68
2021/09/15 02:30:09;;;;;;;;;7.50;6.00;;;;;21.63;84.09;100753.59;4983686;28;45518;-68
2021/09/15 02:32:35;;;;;;;;;5.75;5.00;;;;;21.62;84.22;100751.91;4982419;28;45548;-68
2021/09/15 02:35:00;;;;;;;;;6.25;6.25;;;;;21.59;84.11;100746.81;4986407;28;45448;-68
2021/09/15 02:37:25;;;;;;;;;5.75;5.00;;;;;21.62;84.52;100751.91;4982912;28;45485;-68
2021/09/15 02:39:51;;;;;;;;;5.00;5.00;;;;;21.61;84.04;100755.56;4990853;28;45509;-68
2021/09/15 02:42:16;;;;;;;;;5.75;3.25;;;;;21.62;84.06;100762.59;4992448;28;46371;-68
2021/09/15 02:44:41;;;;;;;;;6.25;5.00;;;;;21.62;84.01;100761.75;4978769;28;45516;-68
2021/09/15 02:47:07;;;;;;;;;4.00;4.00;;;;;21.64;84.10;100767.81;4980697;28;45542;-68
2021/09/15 02:49:32;;;;;;;;;5.00;4.00;;;;;21.66;84.59;100778.38;4981373;28;45376;-68
2021/09/15 02:51:58;;;;;;;;;4.75;4.75;;;;;21.65;84.26;100782.88;4978827;28;48377;-68
2021/09/15 02:54:23;;;;;;;;;7.75;5.75;;;;;21.68;84.58;100782.63;4993032;28;45479;-68
2021/09/15 02:56:48;;;;;;;;;10.25;7.75;;;;;21.69;84.22;100781.63;4983631;28;45393;-68
2021/09/15 02:59:14;;;;;;;;;7.00;5.75;;;;;21.69;84.20;100770.94;4981734;28;46766;-68
2021/09/15 03:01:39;;;;;;;;;10.25;9.75;;;;;21.65;84.63;100768.66;4987885;28;45642;-68
2021/09/15 03:04:04;;;;;;;;;7.50;7.25;;;;;21.66;84.09;100763.16;4980205;28;53178;-68
2021/09/15 03:06:30;;;;;;;;;7.75;7.25;;;;;21.67;84.08;100769.38;4992101;28;45243;-68
2021/09/15 03:08:55;;;;;;;;;12.00;7.50;;;;;21.65;84.05;100764.16;4988509;28;45554;-68
2021/09/15 03:11:21;;;;;;;;;9.00;6.50;;;;;21.63;84.05;100758.94;4992046;28;47276;-68
2021/09/15 03:13:46;;;;;;;;;7.75;6.00;;;;;21.66;84.44;100756.97;4987530;28;45404;-68
2021/09/15 03:16:13;;;;;;;;;10.00;7.00;;;;;21.62;83.63;100749.25;4987316;28;45364;-68
2021/09/15 03:18:38;;;;;;;;;7.00;6.75;;;;;21.62;84.48;100753.75;4982629;28;45365;-68
2021/09/15 03:21:04;;;;;;;;;9.75;8.50;;;;;21.59;84.16;100746.81;4978606;28;49445;-68
2021/09/15 03:23:29;;;;;;;;;8.25;8.00;;;;;21.60;84.07;100743.16;4988558;28;45505;-68
2021/09/15 03:25:55;;;;;;;;;7.25;5.75;;;;;21.53;83.91;100727.81;4986640;28;45941;-68
2021/09/15 03:28:20;;;;;;;;;6.00;6.00;;;;;21.60;84.00;100751.19;4990746;28;45562;-68
2021/09/15 03:30:45;;;;;;;;;6.00;6.00;;;;;21.58;84.54;100745.13;4989709;28;57210;-68
2021/09/15 03:33:11;;;;;;;;;7.25;5.50;;;;;21.57;84.31;100742.59;4994709;28;45369;-68
2021/09/15 03:35:36;;;;;;;;;9.00;6.00;;;;;21.57;84.42;100746.13;4993130;28;47232;-68
2021/09/15 03:38:01;;;;;;;;;7.00;7.00;;;;;21.55;84.42;100756.09;4991642;28;45486;-68
2021/09/15 03:40:26;;;;;;;;;8.25;7.50;;;;;21.57;84.54;100753.31;4989558;28;46348;-68
2021/09/15 03:42:52;;;;;;;;;7.50;7.50;;;;;21.54;84.76;100765.09;4982362;28;52525;-68
2021/09/15 03:45:17;;;;;;;;;8.75;6.50;;;;;21.58;84.50;100757.66;4997079;28;45264;-68
2021/09/15 03:47:42;;;;;;;;;7.25;6.00;;;;;21.58;84.37;100761.19;4986416;28;45575;-68
2021/09/15 03:50:08;;;;;;;;;9.00;9.00;;;;;21.55;85.04;100761.44;4981398;28;49745;-68
2021/09/15 03:52:34;;;;;;;;;6.25;6.00;;;;;21.54;84.20;100764.25;4984022;28;45519;-68
2021/09/15 03:54:59;;;;;;;;;8.00;7.00;;;;;21.52;84.42;100759.06;4982920;28;45371;-68
2021/09/15 03:57:24;;;;;;;;;7.75;7.25;;;;;21.49;84.19;100762.00;4981730;28;45545;-68
2021/09/15 03:59:50;;;;;;;;;7.25;6.00;;;;;21.49;84.03;100767.34;4987441;28;46386;-68
2021/09/15 04:02:15;;;;;;;;;9.00;6.00;;;;;21.49;84.29;100767.34;4986538;28;45629;-68
2021/09/15 04:04:40;;;;;;;;;7.75;6.00;;;;;21.47;84.78;100774.66;4986859;28;45994;-68
2021/09/15 04:07:06;;;;;;;;;5.50;5.00;;;;;21.45;84.60;100768.59;4983310;28;46160;-68
2021/09/15 04:09:31;;;;;;;;;7.00;6.00;;;;;21.48;84.58;100775.50;4988759;28;45619;-68
2021/09/15 04:11:56;;;;;;;;;7.50;7.50;;;;;21.46;84.49;100778.31;4987446;28;45494;-68
2021/09/15 04:14:24;;;;;;;;;7.00;5.75;;;;;21.46;84.88;100769.47;4992378;28;45830;-68
2021/09/15 04:16:50;;;;;;;;;6.75;5.75;;;;;21.46;84.70;100778.31;4997225;28;45511;-68
2021/09/15 04:19:15;;;;;;;;;6.50;6.50;;;;;21.46;84.62;100778.31;4985910;28;46734;-68
2021/09/15 04:21:41;;;;;;;;;8.00;6.75;;;;;21.47;84.54;100777.34;4981190;28;45534;-68
2021/09/15 04:31:59;;;;;;;;;9.75;7.25;;;;;21.36;84.65;100766.75;4991538;28;45487;-68
2021/09/15 04:34:25;;;;;;;;;6.00;5.00;;;;;21.33;84.98;100765.16;4990962;28;45352;-68
2021/09/15 04:36:50;;;;;;;;;9.00;6.00;;;;;21.30;84.97;100756.59;4987800;28;45362;-68
2021/09/15 04:39:15;;;;;;;;;8.00;8.00;;;;;21.32;85.20;100763.47;4979595;28;56808;-68
2021/09/15 04:41:41;;;;;;;;;7.75;4.50;;;;;21.30;85.42;100762.78;4980669;28;45403;-68
2021/09/15 04:44:06;;;;;;;;;12.00;7.75;;;;;21.28;85.36;100762.03;4989429;28;45448;-68
2021/09/15 04:46:31;;;;;;;;;9.75;6.25;;;;;21.22;84.87;100746.53;4991223;28;47018;-68
2021/09/15 04:48:57;;;;;;;;;8.25;6.50;;;;;21.30;85.05;100761.94;4980592;28;45764;-68
2021/09/15 04:51:22;;;;;;;;;8.50;8.00;;;;;21.23;84.85;100747.38;4985193;28;46701;-67
2021/09/15 04:53:47;;;;;;;;;7.50;7.00;;;;;21.31;85.29;100766.31;4986753;28;45641;-68
2021/09/15 04:56:13;;;;;;;;;9.25;7.25;;;;;21.28;85.10;100775.38;4986174;28;45453;-68
2021/09/15 04:58:38;;;;;;;;;10.25;9.25;;;;;21.28;84.89;100764.69;5003587;28;51265;-68
2021/09/15 05:01:03;;;;;;;;;8.25;6.75;;;;;21.26;85.28;100771.16;4995173;28;45434;-67
2021/09/15 05:03:29;;;;;;;;;12.50;11.00;;;;;21.24;84.99;100768.59;4980322;28;45385;-67
2021/09/15 05:05:54;;;;;;;;;12.50;11.50;;;;;21.24;85.41;100773.09;4991266;28;45506;-67
2021/09/15 05:08:19;;;;;;;;;12.00;9.75;;;;;21.23;85.56;100769.59;4989955;28;46331;-68
2021/09/15 05:10:45;;;;;;;;;15.50;13.75;;;;;21.26;85.47;100781.84;4990594;28;45565;-68
2021/09/15 05:13:10;;;;;;;;;16.00;11.75;;;;;21.24;85.28;100779.28;4991361;28;45406;-68
2021/09/15 05:15:35;;;;;;;;;16.75;15.00;;;;;21.27;85.19;100783.53;4996656;28;45364;-68
2021/09/15 05:18:01;;;;;;;;;15.25;13.25;;;;;21.26;85.14;100784.53;4981276;28;46544;-67
2021/09/15 05:20:26;;;;;;;;;14.25;11.50;;;;;21.27;84.80;100784.38;4986307;28;45457;-68
2021/09/15 05:22:53;;;;;;;;;13.75;10.75;;;;;21.29;85.09;100784.25;4985445;28;45546;-68
2021/09/15 05:25:21;;;;;;;;;11.00;10.50;;;;;21.28;85.28;100783.41;4990916;28;45477;-68
2021/09/15 05:27:46;;;;;;;;;11.00;11.00;;;;;21.29;85.47;100778.91;4989949;28;45466;-67
2021/09/15 05:30:13;;;;;;;;;12.00;8.75;;;;;21.30;85.03;100786.84;4989926;28;45344;-67
2021/09/15 05:32:39;;;;;;;;;9.25;7.50;;;;;21.29;84.82;100785.09;4979282;28;45446;-67
2021/09/15 05:35:07;;;;;;;;;15.00;12.50;;;;;21.31;85.29;100788.53;4987656;28;45479;-67
2021/09/15 05:37:33;;;;;;;;;12.00;8.75;;;;;21.33;84.58;100783.03;4998237;28;49160;-67
2021/09/15 05:39:59;;;;;;;;;11.75;10.75;;;;;21.32;84.47;100786.69;4988560;28;45483;-67
2021/09/15 05:42:25;;;;;;;;;13.00;12.00;;;;;21.31;84.75;100790.34;4994837;28;45423;-67
2021/09/15 05:44:51;;;;;;;;;14.25;11.50;;;;;21.30;84.67;100792.19;4991918;28;45445;-67
2021/09/15 05:47:16;;;;;;;;;14.50;12.50;;;;;21.26;85.00;100796.06;4990924;28;46255;-67
2021/09/15 05:49:41;;;;;;;;;11.25;9.75;;;;;21.23;84.94;100796.31;4989446;28;48439;-67
2021/09/15 05:52:07;;;;;;;;;14.00;9.50;;;;;21.24;85.06;100800.69;4979790;28;45961;-67
2021/09/15 05:54:35;;;;;;;;;14.50;13.00;;;;;21.24;84.63;100800.69;4994914;28;45511;-67
2021/09/15 05:57:00;;;;;;;;;12.00;12.00;;;;;21.22;84.80;100804.47;4991735;28;45399;-67
2021/09/15 05:59:25;;;;;;;;;11.75;10.75;;;;;21.22;85.07;100802.66;4984491;28;45222;-68
2021/09/15 06:01:51;;;;;;;;;15.00;15.00;;;;;21.24;84.72;100813.19;4983392;28;45428;-67
2021/09/15 06:04:16;;;;;;;;;14.75;12.75;;;;;21.24;85.03;100823.91;4986897;28;45379;-67
2021/09/15 06:06:42;;;;;;;;;12.75;11.00;;;;;21.22;84.91;100816.00;4978524;28;46427;-67
2021/09/15 06:09:07;;;;;;;;;11.50;10.75;;;;;21.24;85.25;100821.22;4987267;28;45478;-68
2021/09/15 06:11:32;;;;;;;;;9.50;9.50;;;;;21.22;84.90;100821.34;4990651;28;45309;-67
2021/09/15 06:13:58;;;;;;;;;14.00;8.75;;;;;21.23;85.31;100811.50;4990329;28;45346;-68
2021/09/15 06:16:24;;;;;;;;;13.25;9.00;;;;;21.24;85.20;100816.72;4989676;28;47683;-67
2021/09/15 06:18:50;;;;;;;;;14.75;9.75;;;;;21.26;85.02;100824.63;4992558;28;45423;-68
2021/09/15 06:21:16;;;;;;;;;10.50;9.00;;;;;21.23;84.75;100820.38;4992318;28;45633;-67
2021/09/15 06:23:41;;;;;;;;;8.75;7.25;;;;;21.24;85.10;100815.88;4990369;28;45617;-68
2021/09/15 06:26:07;;;;;;;;;12.00;10.25;;;;;21.29;84.78;100825.19;4991306;28;46346;-67
2021/09/15 06:28:32;;;;;;;;;9.25;7.50;;;;;21.29;84.58;100825.19;4989217;28;45327;-68
2021/09/15 06:31:00;;;;;;;;;6.50;6.50;;;;;21.29;84.25;100821.66;4991895;28;45411;-67
2021/09/15 06:33:25;;;;;;;;;9.00;7.50;;;;;21.30;84.49;100820.75;4984959;28;45557;-67
2021/09/15 06:35:51;;;;;;;;;6.50;5.75;;;;;21.30;84.84;100826.09;4982926;28;45354;-67
2021/09/15 06:38:18;;;;;;;;;7.75;6.50;;;;;21.33;84.39;100828.47;4987555;28;45677;-67
2021/09/15 06:40:43;;;;;;;;;9.75;8.00;;;;;21.33;84.42;100825.81;4985498;28;45791;-68
2021/09/15 06:43:08;;;;;;;;;8.50;7.50;;;;;21.35;84.34;100823.84;4993469;28;45530;-67
2021/09/15 06:45:34;;;;;;;;;11.50;9.75;;;;;21.39;84.79;100833.28;4979139;28;45481;-66
2021/09/15 06:47:59;;;;;;;;;8.50;7.25;;;;;21.41;84.20;100836.69;4991020;28;45407;-67
2021/09/15 06:50:25;;;;;;;;;9.50;9.50;;;;;21.39;84.29;100829.78;4982993;28;45397;-67
2021/09/15 06:52:51;;;;;;;;;9.00;7.75;;;;;21.39;84.64;100835.97;4983858;28;45392;-67
2021/09/15 06:55:16;;;;;;;;;9.75;7.75;;;;;21.40;85.04;100834.97;4979072;28;45636;-67
2021/09/15 06:57:42;;;;;;;;;8.75;8.50;;;;;21.41;84.70;100831.34;4993884;28;45409;-67
2021/09/15 07:00:09;;;;;;;;;12.00;10.50;;;;;21.45;84.74;100839.94;4990815;28;45400;-67
2021/09/15 07:02:34;;;;;;;;;12.75;8.50;;;;;21.46;85.03;100837.16;4989215;28;45600;-67
2021/09/15 07:05:00;;;;;;;;;17.00;12.50;;;;;21.47;84.99;100835.31;4988871;28;45534;-67
2021/09/15 07:07:25;;;;;;;;;14.75;11.25;;;;;21.46;84.57;100834.47;4981283;28;45451;-67
2021/09/15 07:09:51;;;;;;;;;13.50;11.00;;;;;21.47;84.17;100840.66;4981135;28;45471;-67
2021/09/15 07:12:16;;;;;;;;;17.50;12.00;;;;;21.45;84.85;100845.28;4991803;28;45341;-67
2021/09/15 07:14:41;;;;;;;;;15.50;11.25;;;;;21.42;84.99;100842.88;4993595;28;46453;-67
2021/09/15 07:17:07;;;;;;;;;14.75;12.00;;;;;21.45;84.73;100848.78;4984116;28;48911;-67
2021/09/15 07:19:33;;;;;;;;;12.25;9.00;;;;;21.47;84.37;100860.22;4981520;28;45470;-67
2021/09/15 07:21:58;;;;;;;;;8.25;8.00;;;;;21.47;84.49;100860.22;4990369;28;45337;-68
2021/09/15 07:24:25;;;;;;;;;12.25;10.50;;;;;21.41;84.25;100855.41;4979612;28;58306;-67
2021/09/15 07:26:50;;;;;;;;;9.75;7.75;;;;;21.38;84.76;100863.69;4993592;28;45633;-67
2021/09/15 07:29:16;;;;;;;;;57.00;46.50;;;;;21.24;84.59;100843.44;4982430;28;45512;-67
2021/09/15 07:31:42;;;;;;;;;8.00;7.00;;;;;21.32;84.88;100867.75;4982153;28;45429;-67
2021/09/15 07:34:08;;;;;;;;;7.50;7.00;;;;;21.31;84.97;100865.22;4989515;28;46450;-67
2021/09/15 07:36:34;;;;;;;;;12.75;9.00;;;;;21.30;85.02;100866.19;4984101;28;45466;-67
2021/09/15 07:38:59;;;;;;;;;8.00;7.25;;;;;21.29;85.17;100869.78;4989221;28;45348;-67
2021/09/15 07:41:25;;;;;;;;;12.25;10.50;;;;;21.28;85.15;100865.44;4989052;28;45599;-67
2021/09/15 07:43:51;;;;;;;;;8.75;7.75;;;;;21.23;84.86;100873.84;4984274;28;46225;-67
2021/09/15 07:46:21;;;;;;;;;10.50;8.75;;;;;21.19;85.72;100874.22;4988257;28;45615;-68
2021/09/15 07:48:46;;;;;;;;;8.00;7.25;;;;;21.16;85.45;100878.03;4991954;28;45376;-67
2021/09/15 07:51:12;;;;;;;;;7.75;7.00;;;;;21.14;85.57;100876.44;4988872;28;45492;-68
2021/09/15 07:53:37;;;;;;;;;7.00;5.50;;;;;21.06;85.80;100867.25;4992814;28;47745;-67
2021/09/15 07:56:02;;;;;;;;;8.50;6.50;;;;;21.05;85.65;100870.91;4996257;28;45478;-67
2021/09/15 07:58:28;;;;;;;;;7.25;5.00;;;;;21.01;85.64;100877.50;4996320;28;45816;-67
2021/09/15 08:00:53;;;;;;;;;8.25;6.75;;;;;21.00;85.64;100878.47;4987927;28;45480;-68
2021/09/15 08:03:18;;;;;;;;;5.00;5.00;;;;;20.97;85.91;100868.03;4986454;28;56267;-67
2021/09/15 08:05:44;;;;;;;;;7.00;5.75;;;;;20.94;85.71;100865.63;4994534;28;46932;-67
2021/09/15 08:08:12;;;;;;;;;4.75;4.75;;;;;20.95;86.13;100872.66;4986938;28;45484;-67
2021/09/15 08:10:39;;;;;;;;;6.00;4.75;;;;;20.87;86.65;100860.94;4987361;28;45506;-67
2021/09/15 08:13:04;;;;;;;;;8.00;6.00;;;;;20.94;86.82;100870.97;4986729;28;46847;-68
2021/09/15 08:15:30;;;;;;;;;5.75;4.00;;;;;20.98;86.28;100869.72;4998784;28;45468;-67
2021/09/15 08:17:55;;;;;;;;;6.50;6.25;;;;;21.05;86.79;100880.75;4995324;28;45551;-68
2021/09/15 08:20:21;;;;;;;;;4.25;4.00;;;;;21.09;86.26;100876.84;4996069;28;45417;-67
2021/09/15 08:22:46;;;;;;;;;18.00;14.75;;;;;21.09;86.33;100879.53;4991230;28;45597;-67
2021/09/15 08:25:12;;;;;;;;;8.00;7.50;;;;;21.17;86.66;100878.88;4996122;28;45542;-68
2021/09/15 08:27:37;;;;;;;;;23.75;20.50;;;;;21.17;86.75;100878.88;4996084;28;45946;-68
2021/09/15 08:30:03;;;;;;;;;5.25;5.00;;;;;21.21;86.20;100886.50;4996483;28;45326;-68
2021/09/15 08:32:29;;;;;;;;;7.25;6.00;;;;;21.24;86.41;100885.38;4994899;28;46422;-68
2021/09/15 08:34:54;;;;;;;;;6.00;4.00;;;;;21.26;86.53;100892.28;4988887;28;45828;-68
2021/09/15 08:37:19;;;;;;;;;6.25;6.25;;;;;21.28;85.94;100887.66;4985675;28;45306;-68
2021/09/15 08:39:45;;;;;;;;;5.50;5.50;;;;;21.32;86.29;100901.66;4995976;28;47865;-68
2021/09/15 08:42:11;;;;;;;;;6.00;5.00;;;;;21.39;86.42;100893.94;4996226;28;45555;-68
2021/09/15 08:44:37;;;;;;;;;5.75;4.50;;;;;21.43;86.04;100890.88;4993733;28;45415;-68
2021/09/15 08:47:05;;;;;;;;;6.75;6.00;;;;;21.48;86.72;100891.31;4992068;28;45324;-68
2021/09/15 08:49:30;;;;;;;;;9.50;6.25;;;;;21.53;85.87;100890.94;4991204;28;45606;-67
2021/09/15 08:51:56;;;;;;;;;6.50;6.00;;;;;21.62;85.96;100890.97;4983544;28;46452;-67
2021/09/15 08:54:22;;;;;;;;;6.50;6.50;;;;;21.72;86.03;100896.38;4996055;28;45586;-67
2021/09/15 08:56:47;;;;;;;;;6.00;5.00;;;;;21.82;85.31;100899.06;4984641;28;45340;-67
2021/09/15 08:59:12;;;;;;;;;7.00;4.75;;;;;21.85;85.62;100905.00;4981742;28;45541;-67
2021/09/15 09:01:39;;;;;;;;;11.75;9.25;;;;;21.91;85.65;100900.09;4981561;28;45466;-67
2021/09/15 09:04:05;;;;;;;;;11.00;7.75;;;;;21.96;85.32;100904.06;4980533;28;45353;-67
2021/09/15 09:06:33;;;;;;;;;9.25;8.25;;;;;21.97;84.76;100905.75;4993120;28;45420;-67
2021/09/15 09:09:02;;;;;;;;;7.00;6.00;;;;;21.98;84.72;100898.56;4982701;28;45553;-67
2021/09/15 09:11:35;;;;;;;;;13.25;10.75;;;;;22.03;85.25;100907.03;4993631;28;46468;-67
2021/09/15 09:14:03;;;;;;;;;8.00;8.00;;;;;22.08;84.40;100910.16;4995638;28;45406;-67
2021/09/15 09:16:48;;;;;;;;;11.75;8.50;;;;;22.14;84.89;100912.34;4989639;28;45415;-67
2021/09/15 09:19:16;;;;;;;;;10.25;9.50;;;;;22.18;84.13;100902.19;4995037;28;45543;-67
2021/09/15 09:21:47;;;;;;;;;13.25;9.00;;;;;22.20;84.28;100901.09;5010372;28;45478;-67
2021/09/15 09:24:13;;;;;;;;;13.25;8.75;;;;;22.30;84.64;100901.97;4995887;28;45754;-67
2021/09/15 09:26:50;;;;;;;;;8.00;7.00;;;;;22.48;84.13;100903.97;4996059;28;45270;-67
2021/09/15 09:29:24;;;;;;;;;7.75;7.50;;;;;22.62;84.30;100903.56;4989056;28;45691;-68
2021/09/15 09:32:04;;;;;;;;;9.00;9.00;;;;;22.76;83.91;100903.16;4993960;28;46659;-67
2021/09/15 09:34:38;;;;;;;;;8.75;7.75;;;;;22.88;84.07;100918.13;4992570;28;45490;-67
2021/09/15 09:37:09;;;;;;;;;12.00;9.50;;;;;23.00;83.60;100913.47;4993200;28;45626;-67
2021/09/15 09:39:47;;;;;;;;;9.00;8.00;;;;;23.05;83.26;100919.25;4994037;28;45296;-67
2021/09/15 09:42:26;;;;;;;;;11.25;10.50;;;;;23.14;83.09;100921.09;4991169;28;46549;-67
2021/09/15 09:44:52;;;;;;;;;12.75;10.00;;;;;23.18;82.46;100917.13;4993909;28;45641;-67
2021/09/15 09:47:23;;;;;;;;;12.50;12.00;;;;;23.18;82.33;100916.28;4990421;28;45472;-67
2021/09/15 09:50:06;;;;;;;;;13.50;11.50;;;;;23.09;82.47;100903.72;4989152;28;45427;-67
2021/09/15 09:52:52;;;;;;;;;13.50;12.00;;;;;23.15;82.46;100914.72;4991473;28;45570;-67
2021/09/15 09:55:19;;;;;;;;;18.75;15.50;;;;;23.20;82.40;100913.47;4993251;28;45788;-67
2021/09/15 09:57:48;;;;;;;;;14.25;13.25;;;;;23.16;82.69;100897.63;4990371;28;45519;-68
2021/09/15 10:00:16;;;;;;;;;12.00;12.00;;;;;23.31;82.37;100908.78;4994500;28;45470;-67
2021/09/15 10:02:42;;;;;;;;;11.00;11.00;;;;;23.37;81.95;100910.03;4994700;28;45637;-67
2021/09/15 10:05:07;;;;;;;;;12.50;11.00;;;;;23.40;81.95;100912.44;4992603;28;45352;-67
2021/09/15 10:07:33;;;;;;;;;11.75;9.00;;;;;23.36;82.18;100908.34;4993643;28;45479;-67
2021/09/15 10:09:59;;;;;;;;;11.25;10.50;;;;;23.29;81.40;100899.19;4993033;28;45559;-67
2021/09/15 10:12:24;;;;;;;;;9.50;8.00;;;;;23.26;81.55;100908.34;4984965;28;45811;-67
2021/09/15 10:14:50;;;;;;;;;14.25;11.00;;;;;23.23;81.69;100915.84;4980726;28;45381;-67
2021/09/15 10:17:25;;;;;;;;;13.50;9.00;;;;;23.15;81.90;100917.41;4990043;28;45995;-68
2021/09/15 10:19:53;;;;;;;;;12.75;11.25;;;;;23.12;82.52;100909.63;4992401;28;45471;-68
2021/09/15 10:22:31;;;;;;;;;11.50;10.50;;;;;23.12;82.35;100909.63;4976401;28;45747;-68
2021/09/15 10:24:58;;;;;;;;;12.75;11.25;;;;;23.15;82.04;100909.38;4993981;28;45698;-68
2021/09/15 10:27:26;;;;;;;;;21.75;18.00;;;;;23.17;82.36;100906.53;4978522;28;45416;-68
2021/09/15 10:30:07;;;;;;;;;17.75;14.50;;;;;23.27;81.93;100898.47;4990800;28;45466;-68
2021/09/15 10:32:35;;;;;;;;;15.25;13.50;;;;;23.39;82.55;100906.22;4983968;28;47274;-68
2021/09/15 10:35:05;;;;;;;;;15.25;12.50;;;;;23.48;82.44;100906.34;4986374;28;45668;-68
2021/09/15 10:37:30;;;;;;;;;13.00;11.00;;;;;23.49;82.14;100906.22;4982203;28;45655;-67
2021/09/15 10:40:08;;;;;;;;;10.00;10.00;;;;;23.44;81.72;100911.16;4979013;28;46760;-67
2021/09/15 10:42:46;;;;;;;;;16.00;12.00;;;;;23.35;81.90;100909.34;4977677;28;46542;-67
2021/09/15 10:45:14;;;;;;;;;17.00;12.75;;;;;23.27;81.35;100915.41;4990880;28;45771;-68
2021/09/15 10:47:55;;;;;;;;;12.75;12.00;;;;;23.16;81.04;100915.56;4990575;28;45392;-67
2021/09/15 10:50:29;;;;;;;;;13.00;9.50;;;;;23.00;81.11;100921.50;4990242;28;45407;-67
2021/09/15 10:53:03;;;;;;;;;13.50;11.50;;;;;22.91;82.86;100925.03;4990138;28;45496;-68
2021/09/15 10:55:40;;;;;;;;;19.00;13.50;;;;;22.87;83.01;100918.25;4989516;28;45351;-68
2021/09/15 10:58:15;;;;;;;;;11.50;9.50;;;;;22.84;83.58;100919.34;4990552;28;45474;-68
2021/09/15 11:00:48;;;;;;;;;12.75;11.75;;;;;22.85;84.07;100923.72;4993243;28;45416;-68
2021/09/15 11:03:31;;;;;;;;;9.00;7.50;;;;;22.88;84.04;100922.66;4984052;28;45657;-69
2021/09/15 11:06:19;;;;;;;;;7.50;6.25;;;;;22.89;83.83;100922.50;4982761;28;45742;-68
2021/09/15 11:08:47;;;;;;;;;7.50;4.75;;;;;22.94;84.11;100916.72;4989524;28;45443;-68
2021/09/15 11:11:18;;;;;;;;;6.00;5.50;;;;;23.04;84.03;100920.25;4984208;28;45466;-68
2021/09/15 11:13:47;;;;;;;;;5.25;4.25;;;;;23.05;83.82;100913.03;4982739;28;45473;-68
2021/09/15 11:16:24;;;;;;;;;5.00;5.00;;;;;23.21;84.21;100917.81;4988267;28;45502;-68
2021/09/15 11:18:59;;;;;;;;;6.00;6.00;;;;;23.30;82.96;100920.50;4985542;28;45490;-68
2021/09/15 11:21:26;;;;;;;;;5.00;5.00;;;;;23.37;82.44;100923.44;4985652;28;45592;-68
2021/09/15 11:24:01;;;;;;;;;6.25;6.00;;;;;23.43;83.27;100915.66;4990245;28;46699;-69
2021/09/15 11:26:54;;;;;;;;;8.50;7.00;;;;;23.62;83.50;100925.50;4993094;28;45670;-68
2021/09/15 11:29:42;;;;;;;;;6.25;6.25;;;;;23.83;82.32;100929.84;4992303;28;45595;-68